SABE/AEP METAR and TAF weather

Enter ICAO airport designator
Station Type Date Time Source
SABE METAR 2022/09/26 10:00 UTC NOAA

SABE 261000Z 04004KT 350V080 9999 BKN013 16/13 Q1014 NOSIG RMK PP000


Station Type Date Time Source
SABE Decoded METAR 2022/09/26 10:00 UTC NOAA

Aeroparque Bs. As. Aerodrome, Argentina (SABE) 34-34S 058-25W 6M
Sep 26, 2022 - 06:00 AM EDT / 2022.09.26 1000 UTC
Wind: from the NE (040 degrees) at 5 MPH (4 KT) (direction variable):0
Visibility: greater than 7 mile(s):0
Sky conditions: mostly cloudy
Temperature: 60 F (16 C)
Dew Point: 55 F (13 C)
Relative Humidity: 82%
Pressure (altimeter): 29.94 in. Hg (1014 hPa)
ob: SABE 261000Z 04004KT 350V080 9999 BKN013 16/13 Q1014 NOSIG RMK PP000
cycle: 10

Station Type Date Time Source
SABE TAF 2022/09/26 06:31 UTC NOAA

TAF SABE 260500Z 2606/2706 06005KT 9999 SCT025 TX22/2618Z TN14/2610Z
BECMG 2620/2622 09010KT

Example: see airport list